Latest Weather Observations for Grafton Airport

IDN60801

Issued at 11:05 pm EDT Saturday 25 October 2014 (issued every 30 minutes, with the page automatically refreshed every 10 minutes)

About weather observations | Map of weather stations | Latest weather observations for NSW | Other Formats
Station Details ID: 058161 Name: GRAFTON AIRPORT AWS Lat: -29.76 Lon: 153.03 Height: 25.09 m
Data from the previous 72 hours. | See also: Recent months for locations in New South Wales
Date/Time
EDT
Temp
°C
App
Temp
°C
Dew
Point
Rel
Hum
%
Delta-T
°C
Wind Press
QNH
hPa
Press
MSL
hPa
Rain
since 9 am
mm
Dir
 
Spd
km/h
Gust
km/h
Spd
kts
Gust
kts
25/11:00pm 18.0 18.6 15.4 85 1.5 SSW 6 6 3 3 1016.2 1016.1 0.0
25/10:30pm 18.8 18.6 15.7 82 1.8 S 11 13 6 7 1016.1 1016.0 0.0
25/10:00pm 19.2 19.8 15.7 80 2.1 S 7 9 4 5 1015.9 1015.8 0.0
25/09:30pm 19.8 20.4 15.9 78 2.3 S 7 9 4 5 1015.9 1015.8 0.0
25/09:00pm 20.9 21.3 16.3 75 2.8 S 9 9 5 5 1015.7 1015.6 0.0
25/08:30pm 21.4 23.4 15.9 71 3.3 CALM 0 0 0 0 1015.5 1015.4 0.0
25/08:00pm 21.3 22.4 15.6 70 3.4 NNE 4 7 2 4 1015.2 1015.1 0.0
25/07:30pm 21.9 22.5 15.3 66 3.9 N 6 11 3 6 1014.8 1014.7 0.0
25/07:00pm 24.4 24.5 15.6 58 5.3 NNE 9 13 5 7 1014.3 1014.2 0.0
25/06:30pm 27.3 27.0 14.3 45 7.8 ENE 9 13 5 7 1013.8 1013.7 0.0
25/06:00pm 29.0 27.9 14.4 41 8.8 ENE 13 17 7 9 1013.4 1013.3 0.0
25/05:30pm 29.4 27.6 13.2 37 9.6 E 15 19 8 10 1013.2 1013.1 0.0
25/05:00pm 29.7 26.6 12.2 34 10.2 ESE 20 30 11 16 1012.9 1012.8 0.0
25/04:30pm 31.6 29.2 14.3 35 10.5 E 20 30 11 16 1012.7 1012.6 0.0
25/04:00pm 33.2 28.6 11.1 26 12.9 SE 26 43 14 23 1012.2 1012.1 0.0
25/03:30pm 34.5 31.4 13.3 27 12.9 E 22 32 12 17 1011.9 1011.8 0.0
25/03:00pm 35.5 34.6 13.6 26 13.4 ENE 11 20 6 11 1012.0 1011.9 0.0
25/02:30pm 34.8 34.4 13.0 26 13.2 NE 7 15 4 8 1012.3 1012.2 0.0
25/02:00pm 33.6 33.2 14.1 30 11.9 NNE 9 17 5 9 1012.6 1012.5 0.0
25/01:30pm 32.8 31.5 14.9 34 11.1 NE 15 26 8 14 1013.0 1012.9 0.0
25/01:00pm 31.8 30.3 15.3 37 10.2 NNE 17 22 9 12 1013.5 1013.4 0.0
25/12:30pm 30.9 29.3 16.1 41 9.2 NNE 19 26 10 14 1014.2 1014.1 0.0
25/12:00pm 29.5 28.1 14.5 40 9.1 N 15 24 8 13 1014.9 1014.8 0.0
25/11:30am 28.5 27.8 15.4 45 8.0 N 13 20 7 11 1015.8 1015.7 0.0
25/11:00am 26.6 25.9 15.3 50 6.9 NNE 13 22 7 12 1016.4 1016.3 0.0
25/10:30am 26.0 25.0 15.7 53 6.3 N 15 20 8 11 1016.8 1016.7 0.0
25/10:00am 24.3 23.5 15.2 57 5.5 N 13 19 7 10 1017.3 1017.2 0.0
25/09:30am 23.0 21.3 14.6 59 5.0 N 17 26 9 14 1017.5 1017.4 0.0
25/09:00am 22.3 20.7 14.9 63 4.4 N 17 24 9 13 1018.0 1017.9 0.0
25/08:30am 20.8 19.2 15.1 70 3.4 N 17 22 9 12 1018.0 1017.9 0.0
25/08:00am 19.3 18.5 16.0 81 2.0 N 15 19 8 10 1018.1 1018.0 0.0
25/07:30am 17.3 17.5 15.8 91 0.9 N 9 13 5 7 1018.2 1018.1 0.0
25/07:00am 16.0 16.6 15.2 95 0.5 NE 6 7 3 4 1018.0 1017.9 0.0
25/06:30am 15.7 16.6 15.1 96 0.3 ENE 4 6 2 3 1017.8 1017.7 0.0
25/06:00am 15.5 17.1 15.0 97 0.3 CALM 0 0 0 0 1017.6 1017.5 0.0
25/05:30am 15.6 16.2 15.3 98 0.2 ENE 6 7 3 4 1017.3 1017.2 0.0
25/05:00am 14.9 15.0 14.4 97 0.3 NE 7 9 4 5 1016.9 1016.8 0.0
25/04:40am 15.1 15.3 14.6 97 0.3 ENE 7 7 4 4 1016.7 1016.6 0.0
25/04:30am 14.9 15.2 14.4 97 0.3 N 6 7 3 4 1016.7 1016.6 0.0
25/04:29am 14.9 15.2 14.4 97 0.3 N 6 7 3 4 1016.8 1016.7 0.0
25/04:00am 15.0 15.1 14.4 96 0.3 NE 7 9 4 5 1016.7 1016.6 0.0
25/03:30am 15.2 15.5 14.4 95 0.5 N 6 9 3 5 1016.9 1016.8 0.0
25/03:08am 15.3 15.4 14.5 95 0.5 NE 7 9 4 5 1017.1 1017.0 0.0
25/03:00am 15.4 15.7 14.6 95 0.5 NE 6 9 3 5 1017.1 1017.0 0.0
25/02:50am 15.0 16.1 13.5 91 0.8 CALM 0 0 0 0 1017.3 1017.2 0.0
25/02:30am 15.8 17.2 14.3 91 0.9 CALM 0 0 0 0 1017.7 1017.6 0.0
25/02:00am 16.3 17.9 15.0 92 0.7 CALM 0 0 0 0 1018.1 1018.0 0.0
25/01:30am 16.2 17.7 14.7 91 0.9 CALM 0 0 0 0 1018.5 1018.4 0.0
25/01:00am 16.8 18.5 15.3 91 0.9 CALM 0 0 0 0 1018.6 1018.5 0.0
25/12:30am 16.9 18.6 15.1 89 1.0 CALM 0 0 0 0 1019.2 1019.1 0.0
25/12:00am 17.0 18.6 14.8 87 1.3 W 0 0 0 0 1019.6 1019.5 0.0
 
Date/Time
EDT
Temp
°C
App
Temp
°C
Dew
Point
Rel
Hum
%
Delta-T
°C
Wind Press
QNH
hPa
Press
MSL
hPa
Rain
since 9 am
mm
Dir
 
Spd
km/h
Gust
km/h
Spd
kts
Gust
kts
24/11:30pm 17.4 18.1 14.5 83 1.7 WNW 4 6 2 3 1019.9 1019.8 0.0
24/11:00pm 18.5 17.9 15.7 84 1.7 NE 13 15 7 8 1019.8 1019.7 0.0
24/10:30pm 18.0 18.3 15.1 83 1.7 NNE 7 9 4 5 1020.8 1020.7 0.0
24/10:00pm 18.7 19.2 15.6 82 1.8 NNE 7 9 4 5 1020.9 1020.8 0.0
24/09:30pm 19.1 18.9 15.8 81 2.0 NNE 11 13 6 7 1021.0 1020.9 0.0
24/09:00pm 19.5 19.3 15.8 79 2.2 NE 11 19 6 10 1020.7 1020.6 0.0
24/08:30pm 19.6 19.3 15.5 77 2.4 NE 11 17 6 9 1020.4 1020.3 0.0
24/08:00pm 19.7 19.4 15.4 76 2.5 NE 11 17 6 9 1020.1 1020.0 0.0
24/07:30pm 20.0 19.6 15.2 74 2.8 NE 11 19 6 10 1019.8 1019.7 0.0
24/07:00pm 20.8 18.4 15.4 71 3.2 NE 22 30 12 16 1019.4 1019.3 0.0
24/06:30pm 21.6 19.6 15.4 68 3.7 NE 20 28 11 15 1019.2 1019.1 0.0
24/06:00pm 22.2 20.1 15.3 65 4.1 NE 20 30 11 16 1019.0 1018.9 0.0
24/05:30pm 23.6 20.5 15.6 61 4.8 NNE 26 32 14 17 1018.7 1018.6 0.0
24/05:00pm 24.3 22.6 15.8 59 5.1 NE 19 26 10 14 1018.5 1018.4 0.0
24/04:30pm 24.4 22.0 15.3 57 5.5 NE 22 33 12 18 1018.3 1018.2 0.0
24/04:00pm 26.1 23.7 15.5 52 6.4 NE 22 30 12 16 1018.3 1018.2 0.0
24/03:30pm 26.7 23.8 15.1 49 7.0 NE 24 33 13 18 1018.4 1018.3 0.0
24/03:00pm 27.8 25.3 14.1 43 8.2 NNE 20 26 11 14 1018.6 1018.5 0.0
24/02:30pm 28.1 26.5 15.1 45 7.9 NE 17 28 9 15 1018.9 1018.8 0.0
24/02:00pm 28.9 27.2 15.8 45 8.1 NE 19 28 10 15 1019.1 1019.0 0.0
24/01:30pm 28.5 26.9 15.1 44 8.2 N 17 26 9 14 1019.4 1019.3 0.0
24/01:00pm 27.7 26.5 15.0 45 7.7 N 15 20 8 11 1020.0 1019.9 0.0
24/12:30pm 27.7 27.2 16.0 49 7.2 N 13 20 7 11 1020.4 1020.3 0.0
24/12:00pm 26.2 25.2 14.6 48 6.9 N 13 20 7 11 1020.8 1020.7 0.0
24/11:30am 24.4 24.4 15.1 56 5.6 NNE 9 19 5 10 1021.3 1021.2 0.0
24/11:00am 24.4 24.0 15.3 57 5.5 NNE 11 19 6 10 1021.7 1021.6 0.0
24/10:30am 22.5 21.6 14.9 62 4.5 NE 13 17 7 9 1022.1 1022.0 0.0
24/10:00am 21.7 21.7 15.3 67 3.8 N 9 19 5 10 1022.4 1022.3 0.0
24/09:30am 20.6 19.6 14.7 69 3.5 NNE 13 15 7 8 1022.2 1022.1 0.0
24/09:00am 19.1 19.6 15.0 77 2.4 NNE 6 9 3 5 1022.5 1022.4 0.0
24/08:30am 17.0 18.7 15.3 90 1.0 CALM 0 0 0 0 1022.5 1022.4 0.0
24/08:08am 15.5 16.7 14.9 96 0.3 WNW 2 7 1 4 1022.4 1022.3 0.0
24/08:00am 15.1 16.7 14.8 98 0.2 CALM 0 0 0 0 1022.3 1022.2 0.0
24/07:30am 14.3 15.6 14.1 99 0.1 CALM 0 0 0 0 1022.1 1022.0 0.0
24/07:00am 13.8 14.9 13.6 99 0.1 CALM 0 0 0 0 1021.8 1021.7 0.0
24/06:30am 13.2 14.1 13.0 99 0.1 CALM 0 0 0 0 1021.4 1021.3 0.0
24/06:00am 13.4 14.4 13.2 99 0.1 CALM 0 0 0 0 1021.0 1020.9 0.0
24/05:30am 12.5 13.1 12.0 97 0.3 CALM 0 0 0 0 1020.7 1020.6 0.0
24/05:10am 12.1 12.5 11.3 95 0.4 CALM 0 0 0 0 1020.6 1020.5 0.0
24/05:00am 12.3 12.8 11.7 96 0.3 CALM 0 0 0 0 1020.4 1020.3 0.0
24/04:30am 12.6 13.2 12.0 96 0.3 CALM 0 0 0 0 1020.1 1020.0 0.0
24/04:00am 13.0 13.8 12.4 96 0.3 CALM 0 0 0 0 1019.9 1019.8 0.0
24/03:30am 12.9 13.0 11.6 92 0.7 S 2 9 1 5 1020.0 1019.9 0.0
24/03:00am 13.8 13.6 12.9 94 0.5 SE 6 6 3 3 1019.9 1019.8 0.0
24/02:30am 14.8 14.9 14.5 98 0.2 S 7 7 4 4 1020.2 1020.1 0.0
24/02:00am 13.4 13.0 12.5 94 0.5 SW 6 7 3 4 1020.5 1020.4 0.0
24/01:30am 13.8 14.3 12.7 93 0.6 SW 2 7 1 4 1020.4 1020.3 0.0
24/01:00am 14.6 15.6 13.3 92 0.7 CALM 0 0 0 0 1020.5 1020.4 0.0
24/12:30am 14.5 15.5 13.2 92 0.7 CALM 0 0 0 0 1021.0 1020.9 0.0
24/12:00am 15.1 16.4 14.0 93 0.6 CALM 0 4 0 2 1021.0 1020.9 0.0
 
Date/Time
EDT
Temp
°C
App
Temp
°C
Dew
Point
Rel
Hum
%
Delta-T
°C
Wind Press
QNH
hPa
Press
MSL
hPa
Rain
since 9 am
mm
Dir
 
Spd
km/h
Gust
km/h
Spd
kts
Gust
kts
23/11:30pm 15.2 16.3 13.6 90 0.9 CALM 0 0 0 0 1021.1 1021.0 0.0
23/11:00pm 15.8 17.1 14.0 89 1.0 CALM 0 0 0 0 1020.9 1020.8 0.0
23/10:30pm 16.2 17.4 13.9 86 1.3 CALM 0 0 0 0 1020.7 1020.6 0.0
23/10:00pm 16.9 18.3 14.4 85 1.4 CALM 0 0 0 0 1020.5 1020.4 0.0
23/09:30pm 17.4 18.8 14.3 82 1.8 CALM 0 0 0 0 1020.5 1020.4 0.0
23/09:00pm 18.1 19.4 14.2 78 2.2 CALM 0 0 0 0 1020.1 1020.0 0.0
23/08:51pm 18.5 20.1 14.8 79 2.2 CALM 0 0 0 0 1020.0 1019.9 0.0
23/08:32pm 18.0 19.2 13.9 77 2.3 CALM 0 0 0 0 1019.8 1019.7 0.0
23/08:30pm 18.2 19.6 14.3 78 2.2 CALM 0 0 0 0 1019.7 1019.6 0.0
23/08:00pm 19.5 19.6 14.5 73 2.9 NE 7 11 4 6 1019.3 1019.2 0.0
23/07:30pm 20.0 20.2 14.6 71 3.2 ENE 7 13 4 7 1019.2 1019.1 0.0
23/07:00pm 20.6 21.8 14.9 70 3.3 N 2 9 1 5 1019.1 1019.0 0.0
23/06:30pm 20.9 20.7 14.8 68 3.6 N 9 13 5 7 1018.7 1018.6 0.0
23/06:00pm 21.5 20.9 14.6 65 4.0 NE 11 15 6 8 1018.2 1018.1 0.0
23/05:30pm 22.3 21.7 14.7 62 4.5 ENE 11 15 6 8 1017.7 1017.6 0.0
23/05:00pm 23.2 22.9 14.5 58 5.1 SE 9 13 5 7 1017.7 1017.6 0.0
23/04:30pm 24.5 24.3 14.6 54 5.9 E 9 15 5 8 1017.2 1017.1 0.0
23/04:00pm 25.6 23.1 13.5 47 7.1 NE 19 24 10 13 1016.3 1016.2 0.0
23/03:30pm 27.1 24.5 13.8 44 7.9 NNE 20 30 11 16 1016.4 1016.3 0.0
23/03:00pm 27.8 25.2 13.3 40 8.6 NNE 19 28 10 15 1016.2 1016.1 0.0
23/02:30pm 29.1 26.8 11.6 33 10.1 NNE 15 24 8 13 1016.2 1016.1 0.0
23/02:00pm 28.5 26.1 12.8 38 9.2 NNE 17 26 9 14 1016.8 1016.7 0.0
23/01:30pm 27.5 25.2 13.1 41 8.5 N 17 26 9 14 1017.3 1017.2 0.0
23/01:00pm 27.3 26.0 13.6 43 8.1 NNE 13 24 7 13 1018.0 1017.9 0.0
23/12:30pm 26.1 23.7 12.5 42 7.9 NE 17 22 9 12 1018.5 1018.4 0.0
23/12:00pm 26.3 24.7 13.8 46 7.4 NNE 15 26 8 14 1018.9 1018.8 0.0
23/11:30am 25.7 23.4 12.9 45 7.4 N 17 20 9 11 1019.6 1019.5 0.0
23/11:00am 24.2 22.3 11.9 46 7.0 NNE 13 20 7 11 1020.3 1020.2 0.0
23/10:30am 23.5 21.8 12.5 50 6.3 N 13 22 7 12 1020.9 1020.8 0.0
23/10:00am 22.1 20.7 12.1 53 5.6 NNW 11 19 6 10 1021.2 1021.1 0.0
23/09:30am 21.4 19.2 12.0 55 5.3 N 15 22 8 12 1021.4 1021.3 0.0
23/09:00am 20.6 18.9 12.3 59 4.6 N 13 20 7 11 1021.8 1021.7 0.0
23/08:30am 19.0 18.1 13.6 71 3.1 N 11 15 6 8 1021.8 1021.7 0.0
23/08:00am 16.9 16.0 12.6 76 2.4 NNE 9 11 5 6 1021.9 1021.8 0.0
23/07:30am 15.4 15.0 13.1 86 1.3 NE 7 9 4 5 1022.0 1021.9 0.0
23/07:00am 14.0 14.9 12.9 93 0.6 CALM 0 0 0 0 1022.0 1021.9 0.0
23/06:42am 13.4 14.2 12.6 95 0.4 CALM 0 0 0 0 1021.8 1021.7 0.0
23/06:30am 12.6 13.1 11.7 94 0.5 CALM 0 0 0 0 1021.8 1021.7 0.0
23/06:23am 12.5 13.0 11.7 95 0.4 CALM 0 0 0 0 1021.8 1021.7 0.0
23/06:00am 12.5 12.9 11.1 91 0.7 CALM 0 0 0 0 1021.3 1021.2 0.0
23/05:30am 13.3 13.9 11.9 91 0.8 CALM 0 0 0 0 1021.2 1021.1 0.0
23/05:00am 14.2 15.1 12.8 91 0.8 CALM 0 0 0 0 1021.1 1021.0 0.0
23/04:30am 14.0 14.9 12.9 93 0.6 CALM 0 0 0 0 1021.2 1021.1 0.0
23/04:00am 13.8 14.6 12.7 93 0.6 CALM 0 0 0 0 1021.4 1021.3 0.0
23/03:30am 13.9 14.7 12.6 92 0.7 CALM 0 0 0 0 1021.5 1021.4 0.0
23/03:00am 14.2 15.1 12.8 91 0.8 CALM 0 0 0 0 1021.7 1021.6 0.0
23/02:30am 14.1 15.0 12.8 92 0.7 CALM 0 0 0 0 1022.1 1022.0 0.0
23/02:00am 14.2 15.1 12.8 91 0.8 CALM 0 0 0 0 1022.4 1022.3 0.0
23/01:30am 14.1 14.9 12.5 90 0.9 CALM 0 0 0 0 1022.7 1022.6 0.0
23/01:00am 13.7 14.4 12.3 91 0.8 CALM 0 0 0 0 1022.8 1022.7 0.0
23/12:30am 13.3 13.8 11.7 90 0.9 CALM 0 0 0 0 1023.0 1022.9 0.0
23/12:00am 13.2 13.6 11.4 89 0.9 CALM 0 0 0 0 1023.3 1023.2 0.0
 
Date/Time
EDT
Temp
°C
App
Temp
°C
Dew
Point
Rel
Hum
%
Delta-T
°C
Wind Press
QNH
hPa
Press
MSL
hPa
Rain
since 9 am
mm
Dir
 
Spd
km/h
Gust
km/h
Spd
kts
Gust
kts
22/11:30pm 13.2 13.5 10.9 86 1.2 CALM 0 0 0 0 1023.5 1023.4 0.0

Other Formats:

Comma delimited format used in spreadsheet applications
http://www.bom.gov.au/fwo/IDN60801/IDN60801.95570.axf

JavaScript Object Notation format (JSON) in row-major order
http://www.bom.gov.au/fwo/IDN60801/IDN60801.95570.json